WXM80 ListenWXM80 Stop

You find our weather info also at:

UK Metoffice

WeatherCloud

Weather Underground

Northeastern Weather Network

AWEKAS

Citizen Weather Observer Program (CWOP)

HAMweather, WeatherForYou, PWS Weather


Weather Underground History page Text

Daily Summary for May 4, 2017 Units:  Both    English   Metric
« Previous Day
Next Day »
Daily Weekly Monthly Yearly Custom
  High: Low: Average:
Temperature: 63.7 °F /  17.6 °C 42.4 °F /  5.8 °C 53.6 °F /  12 °C
Dew Point: 45.7 °F /  7.6 °C 34.6 °F /  1.4 °C 40.8 °F /  4.9 °C
Humidity: 87 % 36 % 63 %
Wind Speed: 8.6 mph /  13.8 km/h - 1.9 mph /  3.1 km/h
Wind Gust: 17.3 mph /  27.8 km/h - -
Wind:- - SSE
Pressure: 30.27 in /  1024.9 hPa 30.10 in /  1019.2 hPa -
Precipitation: 0.00 in /  0 mm    
Historical Graphs
 
 
Tabular Data for May 4, 2017
Time Temperature Dew Point Pressure Wind Wind Speed Wind Gust Humidity Rainfall Rate (Hourly)
00:03 49.6 °F /  9.8 °C 39.5 °F /  4.2 °C 30.16 in /  1021.2 hPa Calm     68 % 0.00 in /  0 mm
00:08 49.5 °F /  9.7 °C 39.7 °F /  4.3 °C 30.17 in /  1021.6 hPa NNW 0.1 mph /  0.2 km/h 1.2 mph /  1.9 km/h 69 % 0.00 in /  0 mm
00:13 49.4 °F /  9.7 °C 39.7 °F /  4.3 °C 30.17 in /  1021.6 hPa NNW 0.1 mph /  0.2 km/h 1.2 mph /  1.9 km/h 69 % 0.00 in /  0 mm
00:18 49.3 °F /  9.6 °C 39.6 °F /  4.2 °C 30.17 in /  1021.6 hPa Calm   1.2 mph /  1.9 km/h 69 % 0.00 in /  0 mm
00:23 49.2 °F /  9.6 °C 39.5 °F /  4.2 °C 30.17 in /  1021.6 hPa NNW 0.1 mph /  0.2 km/h 1.2 mph /  1.9 km/h 69 % 0.00 in /  0 mm
00:28 49.1 °F /  9.5 °C 39.7 °F /  4.3 °C 30.17 in /  1021.6 hPa NNW 0.1 mph /  0.2 km/h 1.2 mph /  1.9 km/h 70 % 0.00 in /  0 mm
00:33 49.0 °F /  9.4 °C 39.6 °F /  4.2 °C 30.17 in /  1021.6 hPa NNW 0.9 mph /  1.4 km/h 2.3 mph /  3.7 km/h 70 % 0.00 in /  0 mm
00:38 48.9 °F /  9.4 °C 39.5 °F /  4.2 °C 30.16 in /  1021.2 hPa NNW 0.2 mph /  0.3 km/h 1.2 mph /  1.9 km/h 70 % 0.00 in /  0 mm
00:43 48.8 °F /  9.3 °C 39.4 °F /  4.1 °C 30.17 in /  1021.6 hPa NNW 0.3 mph /  0.5 km/h 1.2 mph /  1.9 km/h 70 % 0.00 in /  0 mm
00:48 48.7 °F /  9.3 °C 39.4 °F /  4.1 °C 30.17 in /  1021.6 hPa NNW 0.4 mph /  0.6 km/h 2.3 mph /  3.7 km/h 70 % 0.00 in /  0 mm
00:53 48.7 °F /  9.3 °C 39.4 °F /  4.1 °C 30.17 in /  1021.6 hPa NW 0.2 mph /  0.3 km/h 1.2 mph /  1.9 km/h 70 % 0.00 in /  0 mm
00:58 48.7 °F /  9.3 °C 39.4 °F /  4.1 °C 30.17 in /  1021.6 hPa Calm     70 % 0.00 in /  0 mm
01:03 48.7 °F /  9.3 °C 39.4 °F /  4.1 °C 30.17 in /  1021.6 hPa NW 0.4 mph /  0.6 km/h 1.2 mph /  1.9 km/h 70 % 0.00 in /  0 mm
01:08 48.7 °F /  9.3 °C 39.4 °F /  4.1 °C 30.16 in /  1021.2 hPa NNW 0.1 mph /  0.2 km/h 3.5 mph /  5.6 km/h 70 % 0.00 in /  0 mm
01:13 48.7 °F /  9.3 °C 39.4 °F /  4.1 °C 30.16 in /  1021.2 hPa NW 1.3 mph /  2.1 km/h 3.5 mph /  5.6 km/h 70 % 0.00 in /  0 mm
01:18 48.7 °F /  9.3 °C 39.4 °F /  4.1 °C 30.17 in /  1021.6 hPa NNW 0.9 mph /  1.4 km/h 3.0 mph /  4.8 km/h 70 % 0.00 in /  0 mm
01:23 48.7 °F /  9.3 °C 39.4 °F /  4.1 °C 30.17 in /  1021.6 hPa NNW 0.6 mph /  1 km/h 1.2 mph /  1.9 km/h 70 % 0.00 in /  0 mm
01:28 48.7 °F /  9.3 °C 39.4 °F /  4.1 °C 30.17 in /  1021.6 hPa NW 0.7 mph /  1.1 km/h 2.0 mph /  3.2 km/h 70 % 0.00 in /  0 mm
01:33 48.8 °F /  9.3 °C 39.8 °F /  4.3 °C 30.17 in /  1021.6 hPa NW 0.5 mph /  0.8 km/h 2.3 mph /  3.7 km/h 71 % 0.00 in /  0 mm
01:38 48.8 °F /  9.3 °C 39.8 °F /  4.3 °C 30.17 in /  1021.6 hPa Calm   1.2 mph /  1.9 km/h 71 % 0.00 in /  0 mm
01:43 48.8 °F /  9.3 °C 39.8 °F /  4.3 °C 30.17 in /  1021.6 hPa NW 0.3 mph /  0.5 km/h 2.0 mph /  3.2 km/h 71 % 0.00 in /  0 mm
01:48 48.8 °F /  9.3 °C 39.8 °F /  4.3 °C 30.17 in /  1021.6 hPa NNW 0.6 mph /  1 km/h 3.5 mph /  5.6 km/h 71 % 0.00 in /  0 mm
01:54 48.8 °F /  9.3 °C 39.4 °F /  4.1 °C 30.17 in /  1021.6 hPa NW 0.4 mph /  0.6 km/h 2.3 mph /  3.7 km/h 70 % 0.00 in /  0 mm
01:59 48.8 °F /  9.3 °C 39.4 °F /  4.1 °C 30.17 in /  1021.6 hPa NW 0.3 mph /  0.5 km/h 2.3 mph /  3.7 km/h 70 % 0.00 in /  0 mm
02:04 48.8 °F /  9.3 °C 39.4 °F /  4.1 °C 30.17 in /  1021.6 hPa NW 0.2 mph /  0.3 km/h 1.2 mph /  1.9 km/h 70 % 0.00 in /  0 mm
02:09 48.8 °F /  9.3 °C 39.4 °F /  4.1 °C 30.17 in /  1021.6 hPa NW 0.6 mph /  1 km/h 2.3 mph /  3.7 km/h 70 % 0.00 in /  0 mm
02:14 48.8 °F /  9.3 °C 39.8 °F /  4.3 °C 30.17 in /  1021.6 hPa NW 0.8 mph /  1.3 km/h 1.2 mph /  1.9 km/h 71 % 0.00 in /  0 mm
02:19 48.7 °F /  9.3 °C 39.7 °F /  4.3 °C 30.17 in /  1021.6 hPa NW 0.4 mph /  0.6 km/h 2.3 mph /  3.7 km/h 71 % 0.00 in /  0 mm
02:24 48.7 °F /  9.3 °C 39.7 °F /  4.3 °C 30.17 in /  1021.6 hPa NW 1.3 mph /  2.1 km/h 3.5 mph /  5.6 km/h 71 % 0.00 in /  0 mm
02:29 48.6 °F /  9.2 °C 39.6 °F /  4.2 °C 30.18 in /  1021.9 hPa Calm     71 % 0.00 in /  0 mm
02:34 48.6 °F /  9.2 °C 39.6 °F /  4.2 °C 30.18 in /  1021.9 hPa NW 0.9 mph /  1.4 km/h 2.3 mph /  3.7 km/h 71 % 0.00 in /  0 mm
02:39 48.6 °F /  9.2 °C 39.6 °F /  4.2 °C 30.18 in /  1021.9 hPa Calm   1.2 mph /  1.9 km/h 71 % 0.00 in /  0 mm
02:44 48.6 °F /  9.2 °C 39.6 °F /  4.2 °C 30.19 in /  1022.2 hPa NW 1.1 mph /  1.8 km/h 3.5 mph /  5.6 km/h 71 % 0.00 in /  0 mm
02:49 48.5 °F /  9.2 °C 39.5 °F /  4.2 °C 30.19 in /  1022.2 hPa WNW 0.3 mph /  0.5 km/h 1.2 mph /  1.9 km/h 71 % 0.00 in /  0 mm
02:54 48.5 °F /  9.2 °C 39.5 °F /  4.2 °C 30.19 in /  1022.2 hPa WNW 0.8 mph /  1.3 km/h 2.3 mph /  3.7 km/h 71 % 0.00 in /  0 mm
02:59 48.5 °F /  9.2 °C 39.5 °F /  4.2 °C 30.18 in /  1021.9 hPa WNW 0.2 mph /  0.3 km/h 2.3 mph /  3.7 km/h 71 % 0.00 in /  0 mm
03:01 48.5 °F /  9.2 °C 39.5 °F /  4.2 °C 30.18 in /  1021.9 hPa WNW 0.1 mph /  0.2 km/h 1.2 mph /  1.9 km/h 71 % 0.00 in /  0 mm
03:06 48.4 °F /  9.1 °C 39.4 °F /  4.1 °C 30.18 in /  1021.9 hPa Calm     71 % 0.00 in /  0 mm
03:11 48.3 °F /  9.1 °C 39.3 °F /  4.1 °C 30.19 in /  1022.2 hPa Calm     71 % 0.00 in /  0 mm
03:16 48.2 °F /  9 °C 39.2 °F /  4 °C 30.19 in /  1022.2 hPa NW 0.2 mph /  0.3 km/h 1.2 mph /  1.9 km/h 71 % 0.00 in /  0 mm
03:21 48.2 °F /  9 °C 39.2 °F /  4 °C 30.19 in /  1022.2 hPa Calm     71 % 0.00 in /  0 mm
03:26 48.1 °F /  8.9 °C 39.1 °F /  3.9 °C 30.19 in /  1022.2 hPa NW 0.7 mph /  1.1 km/h 2.0 mph /  3.2 km/h 71 % 0.00 in /  0 mm
03:31 48.0 °F /  8.9 °C 39.4 °F /  4.1 °C 30.19 in /  1022.2 hPa Calm   3.5 mph /  5.6 km/h 72 % 0.00 in /  0 mm
03:36 47.9 °F /  8.8 °C 39.3 °F /  4.1 °C 30.19 in /  1022.2 hPa Calm     72 % 0.00 in /  0 mm
03:41 47.8 °F /  8.8 °C 39.2 °F /  4 °C 30.19 in /  1022.2 hPa Calm     72 % 0.00 in /  0 mm
03:46 47.6 °F /  8.7 °C 39.4 °F /  4.1 °C 30.19 in /  1022.2 hPa Calm     73 % 0.00 in /  0 mm
03:51 47.5 °F /  8.6 °C 39.6 °F /  4.2 °C 30.19 in /  1022.2 hPa Calm     74 % 0.00 in /  0 mm
03:56 47.4 °F /  8.6 °C 39.5 °F /  4.2 °C 30.19 in /  1022.2 hPa Calm     74 % 0.00 in /  0 mm
04:01 47.2 °F /  8.4 °C 39.3 °F /  4.1 °C 30.19 in /  1022.2 hPa NW 0.2 mph /  0.3 km/h 1.2 mph /  1.9 km/h 74 % 0.00 in /  0 mm
04:06 47.0 °F /  8.3 °C 39.5 °F /  4.2 °C 30.20 in /  1022.6 hPa Calm     75 % 0.00 in /  0 mm
04:11 46.8 °F /  8.2 °C 39.6 °F /  4.2 °C 30.20 in /  1022.6 hPa NW 0.1 mph /  0.2 km/h 1.2 mph /  1.9 km/h 76 % 0.00 in /  0 mm
04:16 46.6 °F /  8.1 °C 39.4 °F /  4.1 °C 30.20 in /  1022.6 hPa NW 0.3 mph /  0.5 km/h 1.2 mph /  1.9 km/h 76 % 0.00 in /  0 mm
04:21 46.5 °F /  8.1 °C 39.7 °F /  4.3 °C 30.21 in /  1022.9 hPa NW 0.4 mph /  0.6 km/h 2.3 mph /  3.7 km/h 77 % 0.00 in /  0 mm
04:26 46.3 °F /  7.9 °C 39.5 °F /  4.2 °C 30.21 in /  1022.9 hPa NW 0.3 mph /  0.5 km/h 1.2 mph /  1.9 km/h 77 % 0.00 in /  0 mm
04:31 46.1 °F /  7.8 °C 39.3 °F /  4.1 °C 30.21 in /  1022.9 hPa Calm   1.2 mph /  1.9 km/h 77 % 0.00 in /  0 mm
04:35 46.0 °F /  7.8 °C 39.2 °F /  4 °C 30.21 in /  1022.9 hPa Calm     77 % 0.00 in /  0 mm
04:40 45.8 °F /  7.7 °C 39.0 °F /  3.9 °C 30.21 in /  1022.9 hPa Calm   1.2 mph /  1.9 km/h 77 % 0.00 in /  0 mm
04:45 45.6 °F /  7.6 °C 38.8 °F /  3.8 °C 30.21 in /  1022.9 hPa Calm     77 % 0.00 in /  0 mm
04:50 45.4 °F /  7.4 °C 38.6 °F /  3.7 °C 30.21 in /  1022.9 hPa Calm     77 % 0.00 in /  0 mm
04:55 45.1 °F /  7.3 °C 38.3 °F /  3.5 °C 30.21 in /  1022.9 hPa Calm     77 % 0.00 in /  0 mm
05:00 44.8 °F /  7.1 °C 38.4 °F /  3.6 °C 30.20 in /  1022.6 hPa Calm     78 % 0.00 in /  0 mm
05:05 44.5 °F /  6.9 °C 38.1 °F /  3.4 °C 30.21 in /  1022.9 hPa Calm     78 % 0.00 in /  0 mm
05:10 44.3 °F /  6.8 °C 38.2 °F /  3.4 °C 30.21 in /  1022.9 hPa Calm     79 % 0.00 in /  0 mm
05:15 44.1 °F /  6.7 °C 38.0 °F /  3.3 °C 30.20 in /  1022.6 hPa Calm     79 % 0.00 in /  0 mm
05:20 43.8 °F /  6.6 °C 38.0 °F /  3.3 °C 30.21 in /  1022.9 hPa Calm   1.2 mph /  1.9 km/h 80 % 0.00 in /  0 mm
05:25 43.6 °F /  6.4 °C 37.8 °F /  3.2 °C 30.21 in /  1022.9 hPa Calm     80 % 0.00 in /  0 mm
05:30 43.4 °F /  6.3 °C 37.6 °F /  3.1 °C 30.21 in /  1022.9 hPa Calm     80 % 0.00 in /  0 mm
05:35 43.3 °F /  6.3 °C 37.9 °F /  3.3 °C 30.21 in /  1022.9 hPa Calm     81 % 0.00 in /  0 mm
05:41 43.1 °F /  6.2 °C 37.7 °F /  3.2 °C 30.21 in /  1022.9 hPa Calm   1.0 mph /  1.6 km/h 81 % 0.00 in /  0 mm
05:46 42.9 °F /  6.1 °C 37.8 °F /  3.2 °C 30.22 in /  1023.2 hPa Calm     82 % 0.00 in /  0 mm
05:51 42.8 °F /  6 °C 37.7 °F /  3.2 °C 30.22 in /  1023.2 hPa Calm     82 % 0.00 in /  0 mm
05:56 42.6 °F /  5.9 °C 37.8 °F /  3.2 °C 30.22 in /  1023.2 hPa Calm   2.0 mph /  3.2 km/h 83 % 0.00 in /  0 mm
06:01 42.5 °F /  5.8 °C 37.7 °F /  3.2 °C 30.22 in /  1023.2 hPa Calm   1.2 mph /  1.9 km/h 83 % 0.00 in /  0 mm
06:06 42.4 °F /  5.8 °C 37.6 °F /  3.1 °C 30.22 in /  1023.2 hPa Calm   2.0 mph /  3.2 km/h 83 % 0.00 in /  0 mm
06:11 42.4 °F /  5.8 °C 37.9 °F /  3.3 °C 30.22 in /  1023.2 hPa Calm     84 % 0.00 in /  0 mm
06:16 42.4 °F /  5.8 °C 37.9 °F /  3.3 °C 30.22 in /  1023.2 hPa Calm   1.0 mph /  1.6 km/h 84 % 0.00 in /  0 mm
06:21 42.4 °F /  5.8 °C 37.9 °F /  3.3 °C 30.22 in /  1023.2 hPa Calm     84 % 0.00 in /  0 mm
06:26 42.5 °F /  5.8 °C 38.3 °F /  3.5 °C 30.22 in /  1023.2 hPa Calm     85 % 0.00 in /  0 mm
06:31 42.6 °F /  5.9 °C 38.4 °F /  3.6 °C 30.22 in /  1023.2 hPa Calm     85 % 0.00 in /  0 mm
06:36 42.8 °F /  6 °C 38.9 °F /  3.8 °C 30.22 in /  1023.2 hPa Calm     86 % 0.00 in /  0 mm
06:41 43.1 °F /  6.2 °C 39.2 °F /  4 °C 30.22 in /  1023.2 hPa Calm     86 % 0.00 in /  0 mm
06:46 43.5 °F /  6.4 °C 39.9 °F /  4.4 °C 30.22 in /  1023.2 hPa Calm     87 % 0.00 in /  0 mm
06:51 43.9 °F /  6.6 °C 40.3 °F /  4.6 °C 30.22 in /  1023.2 hPa North 0.4 mph /  0.6 km/h 2.3 mph /  3.7 km/h 87 % 0.00 in /  0 mm
06:56 44.3 °F /  6.8 °C 40.4 °F /  4.7 °C 30.23 in /  1023.6 hPa Calm   1.2 mph /  1.9 km/h 86 % 0.00 in /  0 mm
07:01 44.9 °F /  7.2 °C 41.3 °F /  5.2 °C 30.23 in /  1023.6 hPa Calm     87 % 0.00 in /  0 mm
07:06 45.6 °F /  7.6 °C 42.0 °F /  5.6 °C 30.22 in /  1023.2 hPa North 0.2 mph /  0.3 km/h 1.0 mph /  1.6 km/h 87 % 0.00 in /  0 mm
07:11 46.4 °F /  8 °C 41.8 °F /  5.4 °C 30.23 in /  1023.6 hPa ENE 2.2 mph /  3.5 km/h 3.5 mph /  5.6 km/h 84 % 0.00 in /  0 mm
07:16 47.4 °F /  8.6 °C 41.9 °F /  5.5 °C 30.24 in /  1023.9 hPa NNE 2.1 mph /  3.4 km/h 3.5 mph /  5.6 km/h 81 % 0.00 in /  0 mm
07:21 48.0 °F /  8.9 °C 41.8 °F /  5.4 °C 30.24 in /  1023.9 hPa NNE 1.2 mph /  1.9 km/h 3.5 mph /  5.6 km/h 79 % 0.00 in /  0 mm
07:26 48.6 °F /  9.2 °C 42.0 °F /  5.6 °C 30.24 in /  1023.9 hPa NE 0.1 mph /  0.2 km/h 1.2 mph /  1.9 km/h 78 % 0.00 in /  0 mm
07:31 49.2 °F /  9.6 °C 42.0 °F /  5.6 °C 30.24 in /  1023.9 hPa NE 1.6 mph /  2.6 km/h 3.0 mph /  4.8 km/h 76 % 0.00 in /  0 mm
07:36 49.7 °F /  9.8 °C 41.7 °F /  5.4 °C 30.24 in /  1023.9 hPa NNE 0.2 mph /  0.3 km/h 1.2 mph /  1.9 km/h 74 % 0.00 in /  0 mm
07:41 50.2 °F /  10.1 °C 42.2 °F /  5.7 °C 30.24 in /  1023.9 hPa NE 1.1 mph /  1.8 km/h 3.5 mph /  5.6 km/h 74 % 0.00 in /  0 mm
07:46 50.9 °F /  10.5 °C 42.9 °F /  6.1 °C 30.24 in /  1023.9 hPa NE 2.1 mph /  3.4 km/h 3.5 mph /  5.6 km/h 74 % 0.00 in /  0 mm
07:51 51.3 °F /  10.7 °C 41.8 °F /  5.4 °C 30.24 in /  1023.9 hPa NE 1.0 mph /  1.6 km/h 3.5 mph /  5.6 km/h 70 % 0.00 in /  0 mm
07:56 51.7 °F /  10.9 °C 42.2 °F /  5.7 °C 30.24 in /  1023.9 hPa ENE 3.7 mph /  6 km/h 4.6 mph /  7.4 km/h 70 % 0.00 in /  0 mm
08:01 52.1 °F /  11.2 °C 41.9 °F /  5.5 °C 30.25 in /  1024.3 hPa NNE 2.0 mph /  3.2 km/h 3.5 mph /  5.6 km/h 68 % 0.00 in /  0 mm
08:06 52.3 °F /  11.3 °C 41.3 °F /  5.2 °C 30.25 in /  1024.3 hPa ENE 3.1 mph /  5 km/h 5.0 mph /  8 km/h 66 % 0.00 in /  0 mm
08:11 52.4 °F /  11.3 °C 40.6 °F /  4.8 °C 30.25 in /  1024.3 hPa ENE 0.5 mph /  0.8 km/h 1.2 mph /  1.9 km/h 64 % 0.00 in /  0 mm
08:16 52.6 °F /  11.4 °C 41.9 °F /  5.5 °C 30.25 in /  1024.3 hPa NNE 2.2 mph /  3.5 km/h 3.5 mph /  5.6 km/h 67 % 0.00 in /  0 mm
08:21 52.8 °F /  11.6 °C 42.1 °F /  5.6 °C 30.25 in /  1024.3 hPa NE 0.5 mph /  0.8 km/h 3.5 mph /  5.6 km/h 67 % 0.00 in /  0 mm
08:26 52.8 °F /  11.6 °C 41.4 °F /  5.2 °C 30.26 in /  1024.6 hPa ENE 0.1 mph /  0.2 km/h 3.5 mph /  5.6 km/h 65 % 0.00 in /  0 mm
08:32 52.9 °F /  11.6 °C 41.0 °F /  5 °C 30.26 in /  1024.6 hPa ENE 1.0 mph /  1.6 km/h 3.5 mph /  5.6 km/h 64 % 0.00 in /  0 mm
08:37 53.0 °F /  11.7 °C 41.1 °F /  5.1 °C 30.26 in /  1024.6 hPa NNE 1.0 mph /  1.6 km/h 3.5 mph /  5.6 km/h 64 % 0.00 in /  0 mm
08:42 53.3 °F /  11.8 °C 41.8 °F /  5.4 °C 30.27 in /  1024.9 hPa NE 1.0 mph /  1.6 km/h 3.5 mph /  5.6 km/h 65 % 0.00 in /  0 mm
08:47 53.6 °F /  12 °C 42.1 °F /  5.6 °C 30.27 in /  1024.9 hPa NNE 2.2 mph /  3.5 km/h 3.5 mph /  5.6 km/h 65 % 0.00 in /  0 mm
08:52 54.0 °F /  12.2 °C 42.5 °F /  5.8 °C 30.27 in /  1024.9 hPa NNE 0.5 mph /  0.8 km/h 2.3 mph /  3.7 km/h 65 % 0.00 in /  0 mm
08:57 54.5 °F /  12.5 °C 43.0 °F /  6.1 °C 30.27 in /  1024.9 hPa NNE 1.3 mph /  2.1 km/h 5.8 mph /  9.3 km/h 65 % 0.00 in /  0 mm
09:02 54.7 °F /  12.6 °C 42.3 °F /  5.7 °C 30.27 in /  1024.9 hPa NNE 0.9 mph /  1.4 km/h 2.3 mph /  3.7 km/h 63 % 0.00 in /  0 mm
09:07 55.0 °F /  12.8 °C 42.2 °F /  5.7 °C 30.27 in /  1024.9 hPa North 3.4 mph /  5.5 km/h 4.6 mph /  7.4 km/h 62 % 0.00 in /  0 mm
09:12 55.1 °F /  12.8 °C 41.9 °F /  5.5 °C 30.27 in /  1024.9 hPa NNE 0.4 mph /  0.6 km/h 3.5 mph /  5.6 km/h 61 % 0.00 in /  0 mm
09:17 55.1 °F /  12.8 °C 41.0 °F /  5 °C 30.27 in /  1024.9 hPa NNE 0.2 mph /  0.3 km/h 3.5 mph /  5.6 km/h 59 % 0.00 in /  0 mm
09:22 55.5 °F /  13.1 °C 43.1 °F /  6.2 °C 30.27 in /  1024.9 hPa NE 0.8 mph /  1.3 km/h 2.3 mph /  3.7 km/h 63 % 0.00 in /  0 mm
09:27 56.1 °F /  13.4 °C 43.7 °F /  6.5 °C 30.27 in /  1024.9 hPa NNE 0.6 mph /  1 km/h 2.3 mph /  3.7 km/h 63 % 0.00 in /  0 mm
09:32 56.5 °F /  13.6 °C 42.8 °F /  6 °C 30.27 in /  1024.9 hPa ENE 2.9 mph /  4.7 km/h 4.6 mph /  7.4 km/h 60 % 0.00 in /  0 mm
09:37 56.6 °F /  13.7 °C 42.4 °F /  5.8 °C 30.27 in /  1024.9 hPa ENE 1.9 mph /  3.1 km/h 3.5 mph /  5.6 km/h 59 % 0.00 in /  0 mm
09:43 57.1 °F /  13.9 °C 42.9 °F /  6.1 °C 30.27 in /  1024.9 hPa NNE 1.7 mph /  2.7 km/h 3.5 mph /  5.6 km/h 59 % 0.00 in /  0 mm
09:48 57.6 °F /  14.2 °C 42.9 °F /  6.1 °C 30.27 in /  1024.9 hPa NNE 1.9 mph /  3.1 km/h 4.6 mph /  7.4 km/h 58 % 0.00 in /  0 mm
09:53 58.2 °F /  14.6 °C 43.0 °F /  6.1 °C 30.27 in /  1024.9 hPa North 2.5 mph /  4 km/h 3.5 mph /  5.6 km/h 57 % 0.00 in /  0 mm
09:58 58.5 °F /  14.7 °C 43.8 °F /  6.6 °C 30.27 in /  1024.9 hPa North 2.7 mph /  4.3 km/h 6.0 mph /  9.7 km/h 58 % 0.00 in /  0 mm
10:03 58.9 °F /  14.9 °C 43.2 °F /  6.2 °C 30.27 in /  1024.9 hPa NE 2.3 mph /  3.7 km/h 4.0 mph /  6.4 km/h 56 % 0.00 in /  0 mm
10:08 59.3 °F /  15.2 °C 43.6 °F /  6.4 °C 30.26 in /  1024.6 hPa ENE 2.1 mph /  3.4 km/h 4.6 mph /  7.4 km/h 56 % 0.00 in /  0 mm
10:13 58.9 °F /  14.9 °C 41.8 °F /  5.4 °C 30.26 in /  1024.6 hPa ENE 3.2 mph /  5.1 km/h 6.9 mph /  11.1 km/h 53 % 0.00 in /  0 mm
10:18 59.1 °F /  15.1 °C 43.9 °F /  6.6 °C 30.26 in /  1024.6 hPa NNE 2.2 mph /  3.5 km/h 3.5 mph /  5.6 km/h 57 % 0.00 in /  0 mm
10:23 59.9 °F /  15.5 °C 43.7 °F /  6.5 °C 30.26 in /  1024.6 hPa ENE 1.8 mph /  2.9 km/h 4.6 mph /  7.4 km/h 55 % 0.00 in /  0 mm
10:28 60.4 °F /  15.8 °C 43.2 °F /  6.2 °C 30.26 in /  1024.6 hPa NE 3.9 mph /  6.3 km/h 7.0 mph /  11.3 km/h 53 % 0.00 in /  0 mm
10:33 60.5 °F /  15.8 °C 44.7 °F /  7.1 °C 30.25 in /  1024.3 hPa ENE 2.3 mph /  3.7 km/h 5.0 mph /  8 km/h 56 % 0.00 in /  0 mm
10:38 61.0 °F /  16.1 °C 45.7 °F /  7.6 °C 30.25 in /  1024.3 hPa NE 1.9 mph /  3.1 km/h 4.0 mph /  6.4 km/h 57 % 0.00 in /  0 mm
10:43 61.6 °F /  16.4 °C 45.3 °F /  7.4 °C 30.25 in /  1024.3 hPa NE 4.6 mph /  7.4 km/h 5.8 mph /  9.3 km/h 55 % 0.00 in /  0 mm
10:48 61.8 °F /  16.6 °C 43.5 °F /  6.4 °C 30.24 in /  1023.9 hPa NNE 3.6 mph /  5.8 km/h 6.9 mph /  11.1 km/h 51 % 0.00 in /  0 mm
10:53 61.6 °F /  16.4 °C 42.2 °F /  5.7 °C 30.24 in /  1023.9 hPa East 5.0 mph /  8 km/h 8.1 mph /  13 km/h 49 % 0.00 in /  0 mm
10:58 61.0 °F /  16.1 °C 43.7 °F /  6.5 °C 30.24 in /  1023.9 hPa NE 3.2 mph /  5.1 km/h 5.8 mph /  9.3 km/h 53 % 0.00 in /  0 mm
11:03 61.3 °F /  16.3 °C 45.5 °F /  7.5 °C 30.24 in /  1023.9 hPa NE 2.2 mph /  3.5 km/h 3.5 mph /  5.6 km/h 56 % 0.00 in /  0 mm
11:08 60.7 °F /  15.9 °C 43.5 °F /  6.4 °C 30.24 in /  1023.9 hPa NNE 2.3 mph /  3.7 km/h 4.0 mph /  6.4 km/h 53 % 0.00 in /  0 mm
11:13 60.9 °F /  16.1 °C 43.1 °F /  6.2 °C 30.25 in /  1024.3 hPa NE 5.2 mph /  8.4 km/h 8.0 mph /  12.9 km/h 52 % 0.00 in /  0 mm
11:18 60.9 °F /  16.1 °C 44.6 °F /  7 °C 30.25 in /  1024.3 hPa ENE 4.6 mph /  7.4 km/h 8.0 mph /  12.9 km/h 55 % 0.00 in /  0 mm
11:23 61.4 °F /  16.3 °C 43.6 °F /  6.4 °C 30.25 in /  1024.3 hPa NE 2.7 mph /  4.3 km/h 6.9 mph /  11.1 km/h 52 % 0.00 in /  0 mm
11:28 62.2 °F /  16.8 °C 43.8 °F /  6.6 °C 30.25 in /  1024.3 hPa North 3.0 mph /  4.8 km/h 4.0 mph /  6.4 km/h 51 % 0.00 in /  0 mm
11:33 62.8 °F /  17.1 °C 45.4 °F /  7.4 °C 30.25 in /  1024.3 hPa North 3.9 mph /  6.3 km/h 4.6 mph /  7.4 km/h 53 % 0.00 in /  0 mm
11:38 63.4 °F /  17.4 °C 45.5 °F /  7.5 °C 30.26 in /  1024.6 hPa NE 3.8 mph /  6.1 km/h 5.0 mph /  8 km/h 52 % 0.00 in /  0 mm
11:43 63.6 °F /  17.6 °C 44.6 °F /  7 °C 30.26 in /  1024.6 hPa North 3.1 mph /  5 km/h 6.0 mph /  9.7 km/h 50 % 0.00 in /  0 mm
11:48 63.6 °F /  17.6 °C 43.5 °F /  6.4 °C 30.25 in /  1024.3 hPa North 5.4 mph /  8.7 km/h 8.1 mph /  13 km/h 48 % 0.00 in /  0 mm
11:53 63.6 °F /  17.6 °C 44.6 °F /  7 °C 30.25 in /  1024.3 hPa NNE 3.1 mph /  5 km/h 9.2 mph /  14.8 km/h 50 % 0.00 in /  0 mm
11:58 63.7 °F /  17.6 °C 44.7 °F /  7.1 °C 30.25 in /  1024.3 hPa ENE 3.4 mph /  5.5 km/h 8.1 mph /  13 km/h 50 % 0.00 in /  0 mm
12:03 63.4 °F /  17.4 °C 43.4 °F /  6.3 °C 30.25 in /  1024.3 hPa East 5.8 mph /  9.3 km/h 11.5 mph /  18.5 km/h 48 % 0.00 in /  0 mm
12:08 62.5 °F /  16.9 °C 43.1 °F /  6.2 °C 30.25 in /  1024.3 hPa ENE 4.5 mph /  7.2 km/h 9.0 mph /  14.5 km/h 49 % 0.00 in /  0 mm
12:13 62.0 °F /  16.7 °C 43.7 °F /  6.5 °C 30.25 in /  1024.3 hPa NE 5.9 mph /  9.5 km/h 8.1 mph /  13 km/h 51 % 0.00 in /  0 mm
12:18 61.6 °F /  16.4 °C 42.8 °F /  6 °C 30.25 in /  1024.3 hPa ENE 5.6 mph /  9 km/h 9.2 mph /  14.8 km/h 50 % 0.00 in /  0 mm
12:23 61.1 °F /  16.2 °C 43.3 °F /  6.3 °C 30.24 in /  1023.9 hPa NE 4.5 mph /  7.2 km/h 10.0 mph /  16.1 km/h 52 % 0.00 in /  0 mm
12:28 60.5 °F /  15.8 °C 43.3 °F /  6.3 °C 30.24 in /  1023.9 hPa ENE 5.6 mph /  9 km/h 9.2 mph /  14.8 km/h 53 % 0.00 in /  0 mm
12:33 60.6 °F /  15.9 °C 45.3 °F /  7.4 °C 30.24 in /  1023.9 hPa NE 4.2 mph /  6.8 km/h 5.0 mph /  8 km/h 57 % 0.00 in /  0 mm
12:39 60.5 °F /  15.8 °C 43.8 °F /  6.6 °C 30.23 in /  1023.6 hPa East 4.8 mph /  7.7 km/h 11.5 mph /  18.5 km/h 54 % 0.00 in /  0 mm
12:44 60.4 °F /  15.8 °C 43.7 °F /  6.5 °C 30.23 in /  1023.6 hPa ENE 7.1 mph /  11.4 km/h 9.2 mph /  14.8 km/h 54 % 0.00 in /  0 mm
12:49 60.6 °F /  15.9 °C 45.3 °F /  7.4 °C 30.23 in /  1023.6 hPa ENE 3.1 mph /  5 km/h 8.0 mph /  12.9 km/h 57 % 0.00 in /  0 mm
12:54 60.8 °F /  16 °C 43.1 °F /  6.2 °C 30.22 in /  1023.2 hPa ENE 6.8 mph /  10.9 km/h 10.4 mph /  16.7 km/h 52 % 0.00 in /  0 mm
12:59 60.7 °F /  15.9 °C 43.9 °F /  6.6 °C 30.22 in /  1023.2 hPa ENE 5.0 mph /  8 km/h 11.5 mph /  18.5 km/h 54 % 0.00 in /  0 mm
13:04 60.9 °F /  16.1 °C 45.6 °F /  7.6 °C 30.23 in /  1023.6 hPa NE 3.2 mph /  5.1 km/h 7.0 mph /  11.3 km/h 57 % 0.00 in /  0 mm
13:09 61.4 °F /  16.3 °C 45.6 °F /  7.6 °C 30.22 in /  1023.2 hPa ENE 3.1 mph /  5 km/h 8.0 mph /  12.9 km/h 56 % 0.00 in /  0 mm
13:14 61.3 °F /  16.3 °C 44.5 °F /  6.9 °C 30.22 in /  1023.2 hPa ENE 3.8 mph /  6.1 km/h 8.1 mph /  13 km/h 54 % 0.00 in /  0 mm
13:19 61.3 °F /  16.3 °C 44.0 °F /  6.7 °C 30.22 in /  1023.2 hPa NE 5.8 mph /  9.3 km/h 10.0 mph /  16.1 km/h 53 % 0.00 in /  0 mm
13:24 61.1 °F /  16.2 °C 44.3 °F /  6.8 °C 30.22 in /  1023.2 hPa ENE 3.7 mph /  6 km/h 9.0 mph /  14.5 km/h 54 % 0.00 in /  0 mm
13:29 60.8 °F /  16 °C 44.5 °F /  6.9 °C 30.22 in /  1023.2 hPa ENE 4.6 mph /  7.4 km/h 8.1 mph /  13 km/h 55 % 0.00 in /  0 mm
13:34 60.8 °F /  16 °C 44.0 °F /  6.7 °C 30.22 in /  1023.2 hPa ENE 5.9 mph /  9.5 km/h 9.2 mph /  14.8 km/h 54 % 0.00 in /  0 mm
13:39 61.1 °F /  16.2 °C 44.8 °F /  7.1 °C 30.22 in /  1023.2 hPa ENE 8.6 mph /  13.8 km/h 11.5 mph /  18.5 km/h 55 % 0.00 in /  0 mm
13:44 61.3 °F /  16.3 °C 45.0 °F /  7.2 °C 30.21 in /  1022.9 hPa ENE 2.1 mph /  3.4 km/h 9.2 mph /  14.8 km/h 55 % 0.00 in /  0 mm
13:49 61.6 °F /  16.4 °C 45.7 °F /  7.6 °C 30.22 in /  1023.2 hPa SSE 2.5 mph /  4 km/h 6.9 mph /  11.1 km/h 56 % 0.00 in /  0 mm
13:54 62.3 °F /  16.8 °C 41.8 °F /  5.4 °C 30.21 in /  1022.9 hPa SSE 3.3 mph /  5.3 km/h 6.9 mph /  11.1 km/h 47 % 0.00 in /  0 mm
13:59 62.8 °F /  17.1 °C 40.0 °F /  4.4 °C 30.21 in /  1022.9 hPa SSE 4.3 mph /  6.9 km/h 7.0 mph /  11.3 km/h 43 % 0.00 in /  0 mm
14:04 63.4 °F /  17.4 °C 38.6 °F /  3.7 °C 30.21 in /  1022.9 hPa SSE 3.7 mph /  6 km/h 9.2 mph /  14.8 km/h 40 % 0.00 in /  0 mm
14:10 63.2 °F /  17.3 °C 39.7 °F /  4.3 °C 30.20 in /  1022.6 hPa SE 1.0 mph /  1.6 km/h 5.0 mph /  8 km/h 42 % 0.00 in /  0 mm
14:15 62.9 °F /  17.2 °C 37.5 °F /  3.1 °C 30.20 in /  1022.6 hPa SSE 5.8 mph /  9.3 km/h 12.7 mph /  20.4 km/h 39 % 0.00 in /  0 mm
14:20 62.6 °F /  17 °C 39.8 °F /  4.3 °C 30.20 in /  1022.6 hPa SSW 3.5 mph /  5.6 km/h 8.1 mph /  13 km/h 43 % 0.00 in /  0 mm
14:25 63.2 °F /  17.3 °C 37.8 °F /  3.2 °C 30.20 in /  1022.6 hPa SSE 6.0 mph /  9.7 km/h 11.5 mph /  18.5 km/h 39 % 0.00 in /  0 mm
14:30 63.1 °F /  17.3 °C 36.4 °F /  2.4 °C 30.20 in /  1022.6 hPa SSE 7.7 mph /  12.4 km/h 17.3 mph /  27.8 km/h 37 % 0.00 in /  0 mm
14:35 62.5 °F /  16.9 °C 36.5 °F /  2.5 °C 30.20 in /  1022.6 hPa SSE 6.4 mph /  10.3 km/h 11.5 mph /  18.5 km/h 38 % 0.00 in /  0 mm
14:40 62.7 °F /  17.1 °C 36.7 °F /  2.6 °C 30.20 in /  1022.6 hPa SE 4.6 mph /  7.4 km/h 9.2 mph /  14.8 km/h 38 % 0.00 in /  0 mm
14:45 62.4 °F /  16.9 °C 36.4 °F /  2.4 °C 30.20 in /  1022.6 hPa South 3.1 mph /  5 km/h 4.0 mph /  6.4 km/h 38 % 0.00 in /  0 mm
14:50 62.3 °F /  16.8 °C 35.0 °F /  1.7 °C 30.20 in /  1022.6 hPa SSE 3.6 mph /  5.8 km/h 8.1 mph /  13 km/h 36 % 0.00 in /  0 mm
14:55 62.1 °F /  16.7 °C 35.5 °F /  1.9 °C 30.20 in /  1022.6 hPa SSE 2.1 mph /  3.4 km/h 6.0 mph /  9.7 km/h 37 % 0.00 in /  0 mm
15:00 61.9 °F /  16.6 °C 34.6 °F /  1.4 °C 30.20 in /  1022.6 hPa SSE 7.4 mph /  11.9 km/h 11.5 mph /  18.5 km/h 36 % 0.00 in /  0 mm
15:04 61.4 °F /  16.3 °C 34.9 °F /  1.6 °C 30.19 in /  1022.2 hPa East 4.9 mph /  7.9 km/h 10.4 mph /  16.7 km/h 37 % 0.00 in /  0 mm
15:09 61.1 °F /  16.2 °C 34.6 °F /  1.4 °C 30.19 in /  1022.2 hPa SSE 4.6 mph /  7.4 km/h 7.0 mph /  11.3 km/h 37 % 0.00 in /  0 mm
15:14 61.1 °F /  16.2 °C 35.3 °F /  1.8 °C 30.19 in /  1022.2 hPa SSW 5.3 mph /  8.5 km/h 12.7 mph /  20.4 km/h 38 % 0.00 in /  0 mm
15:19 61.1 °F /  16.2 °C 35.3 °F /  1.8 °C 30.19 in /  1022.2 hPa SE 3.9 mph /  6.3 km/h 4.6 mph /  7.4 km/h 38 % 0.00 in /  0 mm
15:24 60.9 °F /  16.1 °C 35.1 °F /  1.7 °C 30.19 in /  1022.2 hPa SSE 8.5 mph /  13.7 km/h 12.7 mph /  20.4 km/h 38 % 0.00 in /  0 mm
15:29 60.2 °F /  15.7 °C 37.0 °F /  2.8 °C 30.19 in /  1022.2 hPa SSW 2.1 mph /  3.4 km/h 4.6 mph /  7.4 km/h 42 % 0.00 in /  0 mm
15:34 60.3 °F /  15.7 °C 35.2 °F /  1.8 °C 30.20 in /  1022.6 hPa SE 1.5 mph /  2.4 km/h 5.8 mph /  9.3 km/h 39 % 0.00 in /  0 mm
15:39 60.2 °F /  15.7 °C 35.1 °F /  1.7 °C 30.19 in /  1022.2 hPa SE 3.3 mph /  5.3 km/h 11.5 mph /  18.5 km/h 39 % 0.00 in /  0 mm
15:50 60.1 °F /  15.6 °C 36.3 °F /  2.4 °C 30.19 in /  1022.2 hPa SE 3.0 mph /  4.8 km/h 9.2 mph /  14.8 km/h 41 % 0.00 in /  0 mm
15:55 60.4 °F /  15.8 °C 37.8 °F /  3.2 °C 30.19 in /  1022.2 hPa SSE 1.4 mph /  2.3 km/h 8.1 mph /  13 km/h 43 % 0.00 in /  0 mm
16:00 60.8 °F /  16 °C 39.9 °F /  4.4 °C 30.19 in /  1022.2 hPa SSE 6.2 mph /  10 km/h 12.0 mph /  19.3 km/h 46 % 0.00 in /  0 mm
16:05 60.6 °F /  15.9 °C 37.4 °F /  3 °C 30.18 in /  1021.9 hPa SSE 4.3 mph /  6.9 km/h 9.2 mph /  14.8 km/h 42 % 0.00 in /  0 mm
16:10 60.5 °F /  15.8 °C 38.5 °F /  3.6 °C 30.18 in /  1021.9 hPa South 2.4 mph /  3.9 km/h 6.9 mph /  11.1 km/h 44 % 0.00 in /  0 mm
16:12 60.5 °F /  15.8 °C 38.5 °F /  3.6 °C 30.18 in /  1021.9 hPa SE 2.8 mph /  4.5 km/h 4.6 mph /  7.4 km/h 44 % 0.00 in /  0 mm
16:17 60.4 °F /  15.8 °C 37.8 °F /  3.2 °C 30.18 in /  1021.9 hPa SE 6.3 mph /  10.1 km/h 12.7 mph /  20.4 km/h 43 % 0.00 in /  0 mm
16:22 59.9 °F /  15.5 °C 38.5 °F /  3.6 °C 30.18 in /  1021.9 hPa SW 2.0 mph /  3.2 km/h 9.2 mph /  14.8 km/h 45 % 0.00 in /  0 mm
16:27 59.9 °F /  15.5 °C 37.9 °F /  3.3 °C 30.18 in /  1021.9 hPa SE 2.3 mph /  3.7 km/h 12.7 mph /  20.4 km/h 44 % 0.00 in /  0 mm
16:32 59.8 °F /  15.4 °C 37.8 °F /  3.2 °C 30.18 in /  1021.9 hPa SSW 3.8 mph /  6.1 km/h 7.0 mph /  11.3 km/h 44 % 0.00 in /  0 mm
16:37 59.8 °F /  15.4 °C 37.2 °F /  2.9 °C 30.19 in /  1022.2 hPa SSE 8.1 mph /  13 km/h 16.1 mph /  25.9 km/h 43 % 0.00 in /  0 mm
16:42 59.5 °F /  15.3 °C 37.6 °F /  3.1 °C 30.19 in /  1022.2 hPa SSE 4.4 mph /  7.1 km/h 8.1 mph /  13 km/h 44 % 0.00 in /  0 mm
16:47 59.1 °F /  15.1 °C 37.2 °F /  2.9 °C 30.19 in /  1022.2 hPa SE 7.2 mph /  11.6 km/h 11.5 mph /  18.5 km/h 44 % 0.00 in /  0 mm
16:52 58.7 °F /  14.8 °C 36.8 °F /  2.7 °C 30.19 in /  1022.2 hPa ESE 3.6 mph /  5.8 km/h 11.5 mph /  18.5 km/h 44 % 0.00 in /  0 mm
16:57 58.6 °F /  14.8 °C 38.4 °F /  3.6 °C 30.19 in /  1022.2 hPa SE 7.9 mph /  12.7 km/h 15.0 mph /  24.1 km/h 47 % 0.00 in /  0 mm
17:02 58.3 °F /  14.6 °C 38.7 °F /  3.7 °C 30.19 in /  1022.2 hPa SSE 5.2 mph /  8.4 km/h 11.5 mph /  18.5 km/h 48 % 0.00 in /  0 mm
17:07 58.0 °F /  14.4 °C 37.3 °F /  2.9 °C 30.19 in /  1022.2 hPa SE 6.1 mph /  9.8 km/h 11.5 mph /  18.5 km/h 46 % 0.00 in /  0 mm
17:12 57.9 °F /  14.4 °C 37.2 °F /  2.9 °C 30.18 in /  1021.9 hPa South 5.2 mph /  8.4 km/h 9.2 mph /  14.8 km/h 46 % 0.00 in /  0 mm
17:17 57.9 °F /  14.4 °C 39.4 °F /  4.1 °C 30.18 in /  1021.9 hPa SSW 3.5 mph /  5.6 km/h 7.0 mph /  11.3 km/h 50 % 0.00 in /  0 mm
17:22 57.9 °F /  14.4 °C 37.2 °F /  2.9 °C 30.18 in /  1021.9 hPa SE 3.3 mph /  5.3 km/h 9.2 mph /  14.8 km/h 46 % 0.00 in /  0 mm
17:27 57.5 °F /  14.2 °C 37.4 °F /  3 °C 30.17 in /  1021.6 hPa South 8.2 mph /  13.2 km/h 12.7 mph /  20.4 km/h 47 % 0.00 in /  0 mm
17:32 57.1 °F /  13.9 °C 38.6 °F /  3.7 °C 30.17 in /  1021.6 hPa SE 7.1 mph /  11.4 km/h 10.4 mph /  16.7 km/h 50 % 0.00 in /  0 mm
17:37 57.0 °F /  13.9 °C 39.0 °F /  3.9 °C 30.18 in /  1021.9 hPa SSE 2.3 mph /  3.7 km/h 4.0 mph /  6.4 km/h 51 % 0.00 in /  0 mm
17:42 56.9 °F /  13.8 °C 38.9 °F /  3.8 °C 30.18 in /  1021.9 hPa ESE 3.4 mph /  5.5 km/h 8.1 mph /  13 km/h 51 % 0.00 in /  0 mm
17:47 56.8 °F /  13.8 °C 39.8 °F /  4.3 °C 30.18 in /  1021.9 hPa SE 2.4 mph /  3.9 km/h 4.0 mph /  6.4 km/h 53 % 0.00 in /  0 mm
17:52 56.8 °F /  13.8 °C 40.3 °F /  4.6 °C 30.18 in /  1021.9 hPa ESE 3.3 mph /  5.3 km/h 7.0 mph /  11.3 km/h 54 % 0.00 in /  0 mm
17:57 56.6 °F /  13.7 °C 39.7 °F /  4.3 °C 30.18 in /  1021.9 hPa SSE 5.3 mph /  8.5 km/h 10.4 mph /  16.7 km/h 53 % 0.00 in /  0 mm
18:02 56.2 °F /  13.4 °C 40.2 °F /  4.6 °C 30.18 in /  1021.9 hPa SE 2.3 mph /  3.7 km/h 6.9 mph /  11.1 km/h 55 % 0.00 in /  0 mm
18:07 56.0 °F /  13.3 °C 40.5 °F /  4.7 °C 30.17 in /  1021.6 hPa SE 1.7 mph /  2.7 km/h 3.5 mph /  5.6 km/h 56 % 0.00 in /  0 mm
18:12 55.9 °F /  13.3 °C 40.4 °F /  4.7 °C 30.18 in /  1021.9 hPa South 1.9 mph /  3.1 km/h 3.5 mph /  5.6 km/h 56 % 0.00 in /  0 mm
18:17 55.7 °F /  13.2 °C 40.2 °F /  4.6 °C 30.17 in /  1021.6 hPa South 6.5 mph /  10.5 km/h 10.4 mph /  16.7 km/h 56 % 0.00 in /  0 mm
18:22 55.4 °F /  13 °C 40.4 °F /  4.7 °C 30.18 in /  1021.9 hPa SE 1.6 mph /  2.6 km/h 5.8 mph /  9.3 km/h 57 % 0.00 in /  0 mm
18:27 55.3 °F /  12.9 °C 41.2 °F /  5.1 °C 30.18 in /  1021.9 hPa SE 0.9 mph /  1.4 km/h 3.5 mph /  5.6 km/h 59 % 0.00 in /  0 mm
18:32 55.1 °F /  12.8 °C 41.0 °F /  5 °C 30.17 in /  1021.6 hPa South 1.1 mph /  1.8 km/h 4.0 mph /  6.4 km/h 59 % 0.00 in /  0 mm
18:37 55.0 °F /  12.8 °C 40.9 °F /  4.9 °C 30.17 in /  1021.6 hPa SSE 3.0 mph /  4.8 km/h 5.8 mph /  9.3 km/h 59 % 0.00 in /  0 mm
18:42 54.7 °F /  12.6 °C 40.6 °F /  4.8 °C 30.18 in /  1021.9 hPa South 2.9 mph /  4.7 km/h 5.8 mph /  9.3 km/h 59 % 0.00 in /  0 mm
18:47 54.5 °F /  12.5 °C 40.9 °F /  4.9 °C 30.17 in /  1021.6 hPa SE 2.2 mph /  3.5 km/h 8.1 mph /  13 km/h 60 % 0.00 in /  0 mm
18:52 54.4 °F /  12.4 °C 40.8 °F /  4.9 °C 30.17 in /  1021.6 hPa East 2.8 mph /  4.5 km/h 5.8 mph /  9.3 km/h 60 % 0.00 in /  0 mm
18:57 54.2 °F /  12.3 °C 41.0 °F /  5 °C 30.17 in /  1021.6 hPa SSE 4.4 mph /  7.1 km/h 6.9 mph /  11.1 km/h 61 % 0.00 in /  0 mm
19:02 54.1 °F /  12.3 °C 40.9 °F /  4.9 °C 30.16 in /  1021.2 hPa SE 1.0 mph /  1.6 km/h 3.5 mph /  5.6 km/h 61 % 0.00 in /  0 mm
19:07 54.1 °F /  12.3 °C 41.4 °F /  5.2 °C 30.17 in /  1021.6 hPa SE 1.9 mph /  3.1 km/h 3.5 mph /  5.6 km/h 62 % 0.00 in /  0 mm
19:12 54.0 °F /  12.2 °C 41.3 °F /  5.2 °C 30.17 in /  1021.6 hPa SSE 0.1 mph /  0.2 km/h 1.0 mph /  1.6 km/h 62 % 0.00 in /  0 mm
19:17 53.9 °F /  12.2 °C 40.8 °F /  4.9 °C 30.17 in /  1021.6 hPa SE 1.3 mph /  2.1 km/h 4.0 mph /  6.4 km/h 61 % 0.00 in /  0 mm
19:22 53.8 °F /  12.1 °C 40.7 °F /  4.8 °C 30.17 in /  1021.6 hPa SSE 1.1 mph /  1.8 km/h 8.1 mph /  13 km/h 61 % 0.00 in /  0 mm
19:27 53.7 °F /  12.1 °C 41.4 °F /  5.2 °C 30.17 in /  1021.6 hPa SSE 3.2 mph /  5.1 km/h 5.0 mph /  8 km/h 63 % 0.00 in /  0 mm
19:32 53.6 °F /  12 °C 41.3 °F /  5.2 °C 30.17 in /  1021.6 hPa SSE 3.4 mph /  5.5 km/h 7.0 mph /  11.3 km/h 63 % 0.00 in /  0 mm
19:37 53.5 °F /  11.9 °C 41.2 °F /  5.1 °C 30.17 in /  1021.6 hPa ESE 1.3 mph /  2.1 km/h 4.6 mph /  7.4 km/h 63 % 0.00 in /  0 mm
19:43 53.4 °F /  11.9 °C 41.5 °F /  5.3 °C 30.16 in /  1021.2 hPa SE 0.1 mph /  0.2 km/h 3.5 mph /  5.6 km/h 64 % 0.00 in /  0 mm
19:47 53.3 °F /  11.8 °C 41.4 °F /  5.2 °C 30.17 in /  1021.6 hPa SE 0.8 mph /  1.3 km/h 3.5 mph /  5.6 km/h 64 % 0.00 in /  0 mm
19:53 53.2 °F /  11.8 °C 41.3 °F /  5.2 °C 30.16 in /  1021.2 hPa SSE 1.1 mph /  1.8 km/h 2.3 mph /  3.7 km/h 64 % 0.00 in /  0 mm
19:58 53.2 °F /  11.8 °C 41.7 °F /  5.4 °C 30.16 in /  1021.2 hPa SSE 0.4 mph /  0.6 km/h 2.0 mph /  3.2 km/h 65 % 0.00 in /  0 mm
20:03 53.1 °F /  11.7 °C 41.6 °F /  5.3 °C 30.16 in /  1021.2 hPa SE 2.9 mph /  4.7 km/h 5.8 mph /  9.3 km/h 65 % 0.00 in /  0 mm
20:08 53.0 °F /  11.7 °C 41.5 °F /  5.3 °C 30.16 in /  1021.2 hPa SE 0.2 mph /  0.3 km/h 3.5 mph /  5.6 km/h 65 % 0.00 in /  0 mm
20:13 52.9 °F /  11.6 °C 41.4 °F /  5.2 °C 30.16 in /  1021.2 hPa SE 1.4 mph /  2.3 km/h 5.8 mph /  9.3 km/h 65 % 0.00 in /  0 mm
20:18 52.8 °F /  11.6 °C 41.4 °F /  5.2 °C 30.16 in /  1021.2 hPa SE 3.0 mph /  4.8 km/h 5.8 mph /  9.3 km/h 65 % 0.00 in /  0 mm
20:23 52.8 °F /  11.6 °C 41.7 °F /  5.4 °C 30.16 in /  1021.2 hPa SSE 0.2 mph /  0.3 km/h 3.5 mph /  5.6 km/h 66 % 0.00 in /  0 mm
20:28 52.7 °F /  11.5 °C 41.7 °F /  5.4 °C 30.15 in /  1020.9 hPa SE 2.5 mph /  4 km/h 7.0 mph /  11.3 km/h 66 % 0.00 in /  0 mm
20:33 52.6 °F /  11.4 °C 41.6 °F /  5.3 °C 30.15 in /  1020.9 hPa ESE 2.0 mph /  3.2 km/h 3.0 mph /  4.8 km/h 66 % 0.00 in /  0 mm
20:38 52.5 °F /  11.4 °C 41.5 °F /  5.3 °C 30.16 in /  1021.2 hPa SSE 4.1 mph /  6.6 km/h 9.2 mph /  14.8 km/h 66 % 0.00 in /  0 mm
20:43 52.5 °F /  11.4 °C 41.5 °F /  5.3 °C 30.15 in /  1020.9 hPa SE 0.3 mph /  0.5 km/h 2.3 mph /  3.7 km/h 66 % 0.00 in /  0 mm
20:48 52.4 °F /  11.3 °C 41.8 °F /  5.4 °C 30.16 in /  1021.2 hPa SE 0.5 mph /  0.8 km/h 2.3 mph /  3.7 km/h 67 % 0.00 in /  0 mm
20:53 52.4 °F /  11.3 °C 41.8 °F /  5.4 °C 30.16 in /  1021.2 hPa SE 0.4 mph /  0.6 km/h 2.3 mph /  3.7 km/h 67 % 0.00 in /  0 mm
20:58 52.4 °F /  11.3 °C 42.1 °F /  5.6 °C 30.16 in /  1021.2 hPa SSE 1.0 mph /  1.6 km/h 3.0 mph /  4.8 km/h 68 % 0.00 in /  0 mm
21:03 52.3 °F /  11.3 °C 42.0 °F /  5.6 °C 30.15 in /  1020.9 hPa SSE 0.4 mph /  0.6 km/h 1.2 mph /  1.9 km/h 68 % 0.00 in /  0 mm
21:08 52.2 °F /  11.2 °C 42.0 °F /  5.6 °C 30.14 in /  1020.5 hPa SE 2.1 mph /  3.4 km/h 4.0 mph /  6.4 km/h 68 % 0.00 in /  0 mm
21:13 52.2 °F /  11.2 °C 42.3 °F /  5.7 °C 30.14 in /  1020.5 hPa SSE 2.0 mph /  3.2 km/h 5.8 mph /  9.3 km/h 69 % 0.00 in /  0 mm
21:18 52.1 °F /  11.2 °C 42.2 °F /  5.7 °C 30.14 in /  1020.5 hPa SSE 1.3 mph /  2.1 km/h 3.5 mph /  5.6 km/h 69 % 0.00 in /  0 mm
21:23 52.1 °F /  11.2 °C 42.6 °F /  5.9 °C 30.14 in /  1020.5 hPa SSE 0.5 mph /  0.8 km/h 2.3 mph /  3.7 km/h 70 % 0.00 in /  0 mm
21:28 52.0 °F /  11.1 °C 42.5 °F /  5.8 °C 30.13 in /  1020.2 hPa SE 0.7 mph /  1.1 km/h 3.5 mph /  5.6 km/h 70 % 0.00 in /  0 mm
21:33 52.0 °F /  11.1 °C 42.5 °F /  5.8 °C 30.13 in /  1020.2 hPa Calm     70 % 0.00 in /  0 mm
21:38 51.9 °F /  11.1 °C 42.8 °F /  6 °C 30.14 in /  1020.5 hPa SE 0.8 mph /  1.3 km/h 3.5 mph /  5.6 km/h 71 % 0.00 in /  0 mm
21:43 51.9 °F /  11.1 °C 42.8 °F /  6 °C 30.14 in /  1020.5 hPa SE 0.1 mph /  0.2 km/h 1.0 mph /  1.6 km/h 71 % 0.00 in /  0 mm
21:48 51.8 °F /  11 °C 42.7 °F /  5.9 °C 30.14 in /  1020.5 hPa SE 0.2 mph /  0.3 km/h 1.2 mph /  1.9 km/h 71 % 0.00 in /  0 mm
21:53 51.8 °F /  11 °C 43.1 °F /  6.2 °C 30.14 in /  1020.5 hPa SE 0.9 mph /  1.4 km/h 3.5 mph /  5.6 km/h 72 % 0.00 in /  0 mm
21:58 51.7 °F /  10.9 °C 43.0 °F /  6.1 °C 30.14 in /  1020.5 hPa SE 0.8 mph /  1.3 km/h 2.3 mph /  3.7 km/h 72 % 0.00 in /  0 mm
22:03 51.7 °F /  10.9 °C 43.3 °F /  6.3 °C 30.14 in /  1020.5 hPa SE 0.6 mph /  1 km/h 2.3 mph /  3.7 km/h 73 % 0.00 in /  0 mm
22:08 51.7 °F /  10.9 °C 43.3 °F /  6.3 °C 30.14 in /  1020.5 hPa ESE 2.4 mph /  3.9 km/h 4.0 mph /  6.4 km/h 73 % 0.00 in /  0 mm
22:13 51.6 °F /  10.9 °C 43.2 °F /  6.2 °C 30.14 in /  1020.5 hPa SSE 2.4 mph /  3.9 km/h 3.5 mph /  5.6 km/h 73 % 0.00 in /  0 mm
22:18 51.5 °F /  10.8 °C 43.1 °F /  6.2 °C 30.14 in /  1020.5 hPa ESE 0.8 mph /  1.3 km/h 3.5 mph /  5.6 km/h 73 % 0.00 in /  0 mm
22:23 51.5 °F /  10.8 °C 43.5 °F /  6.4 °C 30.13 in /  1020.2 hPa Calm     74 % 0.00 in /  0 mm
22:28 51.4 °F /  10.8 °C 43.4 °F /  6.3 °C 30.13 in /  1020.2 hPa SE 0.8 mph /  1.3 km/h 2.3 mph /  3.7 km/h 74 % 0.00 in /  0 mm
22:33 51.3 °F /  10.7 °C 43.3 °F /  6.3 °C 30.13 in /  1020.2 hPa SE 0.6 mph /  1 km/h 2.3 mph /  3.7 km/h 74 % 0.00 in /  0 mm
22:38 51.2 °F /  10.7 °C 43.5 °F /  6.4 °C 30.12 in /  1019.9 hPa Calm     75 % 0.00 in /  0 mm
22:43 51.2 °F /  10.7 °C 43.5 °F /  6.4 °C 30.12 in /  1019.9 hPa Calm   1.0 mph /  1.6 km/h 75 % 0.00 in /  0 mm
22:48 51.1 °F /  10.6 °C 43.4 °F /  6.3 °C 30.12 in /  1019.9 hPa SE 1.1 mph /  1.8 km/h 3.0 mph /  4.8 km/h 75 % 0.00 in /  0 mm
22:53 51.0 °F /  10.6 °C 43.7 °F /  6.5 °C 30.12 in /  1019.9 hPa Calm   1.2 mph /  1.9 km/h 76 % 0.00 in /  0 mm
22:59 50.9 °F /  10.5 °C 43.6 °F /  6.4 °C 30.12 in /  1019.9 hPa SE 0.1 mph /  0.2 km/h 3.5 mph /  5.6 km/h 76 % 0.00 in /  0 mm
23:04 50.8 °F /  10.4 °C 43.5 °F /  6.4 °C 30.12 in /  1019.9 hPa SE 0.3 mph /  0.5 km/h 3.5 mph /  5.6 km/h 76 % 0.00 in /  0 mm
23:09 50.8 °F /  10.4 °C 43.5 °F /  6.4 °C 30.11 in /  1019.5 hPa SE 0.9 mph /  1.4 km/h 2.3 mph /  3.7 km/h 76 % 0.00 in /  0 mm
23:14 50.7 °F /  10.4 °C 43.8 °F /  6.6 °C 30.11 in /  1019.5 hPa SE 0.4 mph /  0.6 km/h 2.3 mph /  3.7 km/h 77 % 0.00 in /  0 mm
23:19 50.6 °F /  10.3 °C 43.7 °F /  6.5 °C 30.11 in /  1019.5 hPa SE 0.9 mph /  1.4 km/h 3.5 mph /  5.6 km/h 77 % 0.00 in /  0 mm
23:24 50.5 °F /  10.3 °C 43.6 °F /  6.4 °C 30.11 in /  1019.5 hPa Calm   1.2 mph /  1.9 km/h 77 % 0.00 in /  0 mm
23:29 50.5 °F /  10.3 °C 43.6 °F /  6.4 °C 30.11 in /  1019.5 hPa SE 0.4 mph /  0.6 km/h 2.3 mph /  3.7 km/h 77 % 0.00 in /  0 mm
23:34 50.5 °F /  10.3 °C 43.6 °F /  6.4 °C 30.11 in /  1019.5 hPa Calm     77 % 0.00 in /  0 mm
23:39 50.4 °F /  10.2 °C 43.5 °F /  6.4 °C 30.11 in /  1019.5 hPa SE 0.7 mph /  1.1 km/h 2.3 mph /  3.7 km/h 77 % 0.00 in /  0 mm
23:44 50.4 °F /  10.2 °C 43.5 °F /  6.4 °C 30.11 in /  1019.5 hPa Calm   1.2 mph /  1.9 km/h 77 % 0.00 in /  0 mm
23:49 50.3 °F /  10.2 °C 43.4 °F /  6.3 °C 30.10 in /  1019.2 hPa SE 0.1 mph /  0.2 km/h 1.2 mph /  1.9 km/h 77 % 0.00 in /  0 mm
23:54 50.3 °F /  10.2 °C 43.4 °F /  6.3 °C 30.10 in /  1019.2 hPa SE 0.3 mph /  0.5 km/h 2.3 mph /  3.7 km/h 77 % 0.00 in /  0 mm
23:59 50.2 °F /  10.1 °C 43.3 °F /  6.3 °C 30.10 in /  1019.2 hPa SE 0.2 mph /  0.3 km/h 1.2 mph /  1.9 km/h 77 % 0.00 in /  0 mm
Crab Meadow Weather
Compliments of Weather Underground - 3 mb

Script developed by  Jim McMurry - jmcmurry@mwt.net Adapted for the template by  Wim van der Kuil - Leuven-Template.eu

Extremes: The heaviest hailstones on record, weighing up to 2.25 pounds were reported to have killed 92 people in the Gopalganj district of Bangladesh on April 14, 1986.